createdAt,value
2023-01-31T00:01:47.396Z,59.70
2023-01-31T00:04:15.185Z,59.70
2023-01-31T00:06:44.910Z,59.70
2023-01-31T00:09:15.277Z,59.60
2023-01-31T00:11:43.065Z,59.70
2023-01-31T00:14:11.438Z,59.70
2023-01-31T00:16:40.640Z,59.60
2023-01-31T00:19:08.416Z,59.70
2023-01-31T00:21:36.265Z,59.60
2023-01-31T00:24:05.635Z,59.70
2023-01-31T00:26:35.274Z,60.50
2023-01-31T00:29:05.189Z,59.70
2023-01-31T00:31:36.128Z,59.80
2023-01-31T00:34:05.346Z,59.70
2023-01-31T00:36:35.116Z,59.80
2023-01-31T00:39:04.919Z,59.80
2023-01-31T00:41:33.252Z,59.80
2023-01-31T00:44:01.672Z,59.80
2023-01-31T00:46:31.727Z,59.80
2023-01-31T00:48:59.690Z,59.90
2023-01-31T00:51:28.956Z,59.90
2023-01-31T00:53:56.775Z,59.90
2023-01-31T00:56:25.771Z,59.90
2023-01-31T00:58:55.547Z,59.90
2023-01-31T01:01:26.121Z,59.90
2023-01-31T01:03:55.071Z,59.90
2023-01-31T01:06:23.953Z,60.00
2023-01-31T01:08:54.736Z,60.00
2023-01-31T01:11:24.227Z,60.00
2023-01-31T01:13:53.316Z,60.00
2023-01-31T01:16:23.963Z,60.00
2023-01-31T01:18:55.004Z,60.00
2023-01-31T01:21:29.074Z,60.00
2023-01-31T01:24:00.847Z,60.00
2023-01-31T01:26:31.096Z,60.00
2023-01-31T01:29:00.723Z,60.00
2023-01-31T01:31:31.105Z,60.00
2023-01-31T01:34:00.430Z,60.10
2023-01-31T01:36:28.413Z,60.00
2023-01-31T01:38:57.937Z,60.10
2023-01-31T01:41:25.888Z,60.10
2023-01-31T01:43:55.224Z,60.10
2023-01-31T01:46:29.310Z,60.10
2023-01-31T01:49:01.500Z,60.10
2023-01-31T01:51:30.999Z,60.10
2023-01-31T01:54:04.173Z,60.10
2023-01-31T01:56:39.814Z,60.10
2023-01-31T01:59:11.491Z,60.20
2023-01-31T02:01:40.404Z,60.10
2023-01-31T02:04:14.950Z,60.10
2023-01-31T02:06:44.136Z,60.10
2023-01-31T02:09:33.858Z,60.10
2023-01-31T02:12:01.697Z,60.20
2023-01-31T02:14:30.074Z,60.10
2023-01-31T02:16:58.053Z,60.20
2023-01-31T02:19:33.336Z,60.20
2023-01-31T02:22:20.886Z,60.10
2023-01-31T02:25:30.618Z,60.20
2023-01-31T02:28:29.735Z,60.20
2023-01-31T02:31:38.149Z,60.20
2023-01-31T02:34:13.477Z,60.20
2023-01-31T02:36:56.967Z,60.20
2023-01-31T02:39:32.132Z,60.10
2023-01-31T02:42:12.583Z,60.10
2023-01-31T02:45:02.233Z,60.10
2023-01-31T02:47:40.635Z,60.10
2023-01-31T02:50:15.170Z,60.20
2023-01-31T02:52:50.824Z,60.20
2023-01-31T02:55:41.673Z,60.20
2023-01-31T02:58:13.448Z,60.20
2023-01-31T03:00:45.683Z,60.10
2023-01-31T03:03:20.363Z,60.10
2023-01-31T03:06:23.893Z,60.20
2023-01-31T03:08:57.586Z,60.10
2023-01-31T03:11:37.699Z,60.10
2023-01-31T03:14:14.917Z,60.10
2023-01-31T03:17:09.314Z,60.10
2023-01-31T03:19:44.205Z,60.10
2023-01-31T03:22:17.132Z,60.10
2023-01-31T03:24:49.633Z,60.00
2023-01-31T03:27:17.953Z,60.10
2023-01-31T03:29:49.085Z,60.10
2023-01-31T03:32:23.206Z,60.00
2023-01-31T03:34:52.267Z,60.00
2023-01-31T03:37:25.917Z,60.10
2023-01-31T03:40:04.393Z,60.10
2023-01-31T03:42:43.779Z,60.90
2023-01-31T03:45:15.896Z,60.10
2023-01-31T03:47:46.569Z,60.00
2023-01-31T03:50:18.601Z,60.10
2023-01-31T03:52:53.230Z,60.00
2023-01-31T03:55:30.428Z,60.90
2023-01-31T03:58:00.761Z,60.00
2023-01-31T04:00:29.664Z,60.10
2023-01-31T04:03:05.837Z,60.00
2023-01-31T04:05:34.566Z,60.10
2023-01-31T04:08:05.179Z,60.00
2023-01-31T04:10:36.191Z,60.90
2023-01-31T04:13:04.115Z,60.20
2023-01-31T04:15:32.201Z,60.00
2023-01-31T04:18:00.123Z,60.00
2023-01-31T04:20:27.959Z,60.00
2023-01-31T04:22:55.738Z,60.00
2023-01-31T04:25:23.757Z,60.10
2023-01-31T04:27:53.076Z,60.10
2023-01-31T04:30:20.859Z,60.00
2023-01-31T04:32:48.658Z,60.00
2023-01-31T04:35:16.539Z,60.10
2023-01-31T04:37:44.396Z,60.10
2023-01-31T04:40:13.781Z,60.10
2023-01-31T04:42:41.673Z,60.10
2023-01-31T04:45:12.145Z,60.10
2023-01-31T04:47:39.988Z,60.00
2023-01-31T04:50:08.881Z,60.10
2023-01-31T04:52:36.970Z,60.10
2023-01-31T04:55:05.143Z,60.20
2023-01-31T04:57:33.182Z,60.00
2023-01-31T05:00:00.946Z,60.20
2023-01-31T05:02:32.052Z,60.20
2023-01-31T05:05:00.115Z,60.10
2023-01-31T05:07:27.987Z,60.20
2023-01-31T05:09:55.811Z,60.10
2023-01-31T05:12:23.753Z,60.10
2023-01-31T05:14:52.166Z,60.10
2023-01-31T05:17:25.871Z,60.00
2023-01-31T05:19:55.027Z,60.00
2023-01-31T05:22:22.953Z,60.00
2023-01-31T05:24:51.460Z,60.00
2023-01-31T05:27:20.040Z,60.00
2023-01-31T05:29:48.606Z,60.00
2023-01-31T05:32:17.631Z,59.90
2023-01-31T05:34:45.412Z,59.80
2023-01-31T05:37:14.554Z,59.80
2023-01-31T05:39:42.383Z,59.90
2023-01-31T05:42:10.136Z,59.70
2023-01-31T05:44:37.926Z,59.90
2023-01-31T05:47:06.089Z,59.70
2023-01-31T05:49:34.474Z,59.60
2023-01-31T05:52:03.257Z,58.00
2023-01-31T05:54:32.678Z,58.40
2023-01-31T05:57:00.463Z,58.90
2023-01-31T05:59:31.076Z,59.20
2023-01-31T06:01:59.734Z,59.40
2023-01-31T06:04:27.592Z,59.60
2023-01-31T06:06:55.434Z,59.80
2023-01-31T06:09:23.211Z,60.00
2023-01-31T06:11:52.329Z,60.00
2023-01-31T06:14:20.229Z,60.00
2023-01-31T06:16:48.032Z,60.10
2023-01-31T06:19:15.842Z,60.20
2023-01-31T06:21:43.594Z,60.10
2023-01-31T06:24:11.369Z,60.20
2023-01-31T06:26:39.215Z,60.40
2023-01-31T06:29:09.898Z,60.50
2023-01-31T06:31:37.724Z,60.50
2023-01-31T06:34:05.717Z,60.60
2023-01-31T06:36:34.211Z,60.70
2023-01-31T06:39:03.963Z,60.80
2023-01-31T06:41:31.782Z,60.90
2023-01-31T06:43:59.665Z,60.90
2023-01-31T06:46:28.867Z,60.90
2023-01-31T06:48:57.174Z,60.90
2023-01-31T06:51:25.361Z,60.90
2023-01-31T06:53:53.172Z,60.90
2023-01-31T06:56:21.065Z,60.90
2023-01-31T06:58:48.872Z,60.90
2023-01-31T07:01:17.116Z,60.80
2023-01-31T07:03:46.223Z,60.80
2023-01-31T07:06:14.172Z,60.80
2023-01-31T07:08:41.987Z,60.80
2023-01-31T07:11:09.745Z,60.70
2023-01-31T07:13:37.833Z,60.70
2023-01-31T07:16:06.311Z,60.70
2023-01-31T07:18:34.186Z,60.70
2023-01-31T07:21:03.355Z,60.70
2023-01-31T07:23:31.176Z,60.60
2023-01-31T07:26:00.900Z,60.60
2023-01-31T07:28:28.649Z,60.60
2023-01-31T07:30:56.444Z,60.50
2023-01-31T07:33:24.215Z,60.50
2023-01-31T07:35:52.008Z,60.50
2023-01-31T07:38:21.098Z,60.50
2023-01-31T07:40:49.277Z,60.40
2023-01-31T07:43:17.072Z,60.50
2023-01-31T07:45:44.888Z,60.40
2023-01-31T07:48:12.680Z,60.40
2023-01-31T07:50:40.466Z,60.40
2023-01-31T07:53:08.318Z,60.30
2023-01-31T07:55:37.436Z,60.30
2023-01-31T07:58:05.202Z,60.30
2023-01-31T08:00:50.721Z,60.20
2023-01-31T08:03:35.201Z,60.30
2023-01-31T08:06:04.946Z,60.20
2023-01-31T08:08:32.943Z,60.20
2023-01-31T08:11:02.128Z,60.20
2023-01-31T08:13:30.575Z,60.20
2023-01-31T08:15:58.468Z,61.00
2023-01-31T08:18:26.345Z,60.20
2023-01-31T08:20:54.107Z,60.10
2023-01-31T08:23:21.944Z,60.10
2023-01-31T08:25:49.750Z,60.10
2023-01-31T08:28:18.901Z,60.10
2023-01-31T08:30:56.064Z,60.10
2023-01-31T08:33:30.740Z,60.10
2023-01-31T08:35:58.652Z,60.10
2023-01-31T08:38:26.506Z,60.10
2023-01-31T08:40:54.289Z,60.10
2023-01-31T08:43:23.421Z,60.10
2023-01-31T08:45:51.176Z,60.10
2023-01-31T08:48:18.942Z,60.10
2023-01-31T08:50:46.714Z,60.10
2023-01-31T08:53:14.484Z,60.10
2023-01-31T08:55:42.307Z,60.00
2023-01-31T08:58:10.080Z,60.00
2023-01-31T09:00:39.205Z,60.00
2023-01-31T09:03:07.088Z,60.00
2023-01-31T09:05:34.938Z,60.00
2023-01-31T09:08:02.707Z,60.00
2023-01-31T09:10:30.491Z,60.00
2023-01-31T09:13:00.399Z,60.00
2023-01-31T09:15:28.740Z,60.00
2023-01-31T09:17:57.949Z,60.00
2023-01-31T09:20:25.706Z,60.00
2023-01-31T09:22:53.503Z,59.90
2023-01-31T09:25:33.521Z,59.90
2023-01-31T09:28:09.140Z,59.90
2023-01-31T09:30:37.414Z,59.90
2023-01-31T09:33:06.791Z,59.90
2023-01-31T09:35:34.550Z,59.90
2023-01-31T09:38:02.363Z,59.90
2023-01-31T09:40:33.491Z,59.80
2023-01-31T09:43:05.072Z,59.90
2023-01-31T09:45:34.239Z,59.80
2023-01-31T09:48:03.161Z,59.80
2023-01-31T09:50:36.716Z,59.80
2023-01-31T09:53:04.969Z,59.80
2023-01-31T09:55:42.545Z,59.90
2023-01-31T09:58:20.384Z,59.80
2023-01-31T10:00:53.028Z,59.80
2023-01-31T10:03:36.744Z,59.90
2023-01-31T10:06:13.163Z,59.90
2023-01-31T10:08:47.955Z,59.70
2023-01-31T10:11:24.842Z,59.70
2023-01-31T10:13:58.454Z,60.50
2023-01-31T10:16:31.869Z,59.70
2023-01-31T10:19:05.381Z,59.80
2023-01-31T10:21:40.984Z,59.70
2023-01-31T10:24:16.963Z,59.80
2023-01-31T10:26:47.575Z,59.80
2023-01-31T10:29:22.310Z,59.80
2023-01-31T10:31:54.889Z,59.70
2023-01-31T10:34:27.123Z,59.70
2023-01-31T10:36:59.949Z,59.70
2023-01-31T10:39:32.560Z,59.80
2023-01-31T10:42:09.363Z,59.80
2023-01-31T10:44:48.052Z,59.80
2023-01-31T10:47:17.561Z,59.80
2023-01-31T10:49:47.751Z,59.80
2023-01-31T10:52:49.766Z,59.90
2023-01-31T10:55:36.083Z,60.00
2023-01-31T10:58:04.520Z,60.60
2023-01-31T11:00:34.666Z,61.50
2023-01-31T11:03:02.429Z,62.20
2023-01-31T11:05:31.189Z,62.60
2023-01-31T11:08:07.299Z,62.80
2023-01-31T11:10:35.206Z,63.00
2023-01-31T11:13:07.332Z,63.00
2023-01-31T11:15:38.876Z,63.00
2023-01-31T11:18:07.759Z,63.00
2023-01-31T11:20:38.298Z,63.00
2023-01-31T11:23:08.402Z,62.70
2023-01-31T11:25:36.920Z,62.60
2023-01-31T11:28:19.594Z,62.10
2023-01-31T11:30:49.613Z,61.90
2023-01-31T11:33:39.408Z,61.60
2023-01-31T11:36:09.530Z,61.50
2023-01-31T11:38:39.988Z,61.40
2023-01-31T11:41:34.155Z,61.10
2023-01-31T11:44:11.901Z,61.00
2023-01-31T11:46:48.746Z,60.90
2023-01-31T11:49:23.514Z,60.80
2023-01-31T11:51:52.012Z,60.90
2023-01-31T11:54:25.359Z,60.70
2023-01-31T11:56:55.653Z,60.70
2023-01-31T11:59:27.629Z,60.80
2023-01-31T12:01:58.613Z,60.70
2023-01-31T12:04:31.132Z,60.50
2023-01-31T12:07:05.398Z,60.50
2023-01-31T12:09:43.702Z,60.50
2023-01-31T12:12:29.863Z,60.50
2023-01-31T12:15:01.804Z,60.40
2023-01-31T12:17:31.660Z,60.30
2023-01-31T12:20:28.399Z,60.50
2023-01-31T12:23:08.126Z,60.40
2023-01-31T12:25:52.951Z,60.40
2023-01-31T12:28:33.800Z,60.40
2023-01-31T12:31:20.577Z,60.40
2023-01-31T12:34:02.150Z,60.30
2023-01-31T12:36:41.461Z,60.20
2023-01-31T12:39:23.966Z,60.20
2023-01-31T12:42:04.171Z,60.10
2023-01-31T12:44:45.613Z,60.10
2023-01-31T12:47:32.159Z,60.20
2023-01-31T12:50:14.225Z,60.10
2023-01-31T12:52:53.107Z,60.10
2023-01-31T12:55:31.116Z,60.10
2023-01-31T12:58:16.036Z,60.00
2023-01-31T13:00:53.724Z,60.00
2023-01-31T13:03:58.246Z,60.00
2023-01-31T13:06:31.885Z,60.10
2023-01-31T13:09:08.117Z,60.10
2023-01-31T13:11:40.382Z,60.00
2023-01-31T13:14:15.161Z,60.00
2023-01-31T13:16:45.331Z,60.00
2023-01-31T13:19:19.053Z,59.90
2023-01-31T13:21:49.855Z,60.00
2023-01-31T13:24:21.619Z,59.90
2023-01-31T13:26:53.947Z,59.90
2023-01-31T13:29:26.385Z,60.00
2023-01-31T13:32:00.501Z,59.90
2023-01-31T13:34:32.572Z,59.90
2023-01-31T13:37:03.599Z,59.90
2023-01-31T13:39:37.787Z,60.00
2023-01-31T13:42:05.994Z,59.90
2023-01-31T13:44:35.399Z,59.90
2023-01-31T13:47:07.218Z,59.90
2023-01-31T13:49:38.793Z,59.80
2023-01-31T13:52:13.776Z,59.90
2023-01-31T13:54:44.682Z,59.90
2023-01-31T13:57:24.195Z,59.80
2023-01-31T13:59:57.043Z,59.80
2023-01-31T14:02:24.892Z,59.90
2023-01-31T14:04:52.689Z,59.70
2023-01-31T14:07:23.038Z,59.70
2023-01-31T14:10:36.693Z,59.80
2023-01-31T14:13:27.709Z,59.70
2023-01-31T14:15:59.074Z,59.70
2023-01-31T14:18:51.300Z,59.60
2023-01-31T14:21:45.637Z,59.60
2023-01-31T14:24:22.309Z,59.60
2023-01-31T14:26:54.751Z,59.60
2023-01-31T14:29:24.744Z,59.50
2023-01-31T14:31:56.831Z,59.50
2023-01-31T14:34:27.313Z,59.60
2023-01-31T14:37:07.703Z,59.50
2023-01-31T14:40:05.787Z,59.50
2023-01-31T14:42:49.758Z,59.50
2023-01-31T14:45:39.564Z,59.40
2023-01-31T14:48:27.635Z,59.40
2023-01-31T14:51:09.095Z,59.40
2023-01-31T14:54:02.824Z,59.40
2023-01-31T14:56:53.264Z,59.30
2023-01-31T14:59:27.870Z,59.30
2023-01-31T15:01:56.645Z,59.30
2023-01-31T15:04:28.352Z,59.30
2023-01-31T15:06:58.258Z,59.30
2023-01-31T15:09:38.898Z,59.30
2023-01-31T15:13:00.771Z,59.40
2023-01-31T15:15:35.560Z,59.50
2023-01-31T15:18:11.821Z,59.50
2023-01-31T15:20:45.037Z,59.50
2023-01-31T15:23:20.322Z,59.60
2023-01-31T15:25:50.729Z,59.50
2023-01-31T15:28:22.004Z,59.50
2023-01-31T15:30:50.667Z,59.60
2023-01-31T15:33:24.344Z,59.70
2023-01-31T15:35:59.099Z,60.40
2023-01-31T15:38:33.103Z,59.70
2023-01-31T15:41:18.125Z,59.80
2023-01-31T15:43:46.142Z,59.70
2023-01-31T15:46:15.639Z,59.70
2023-01-31T15:48:43.933Z,59.80
2023-01-31T15:51:15.184Z,59.80
2023-01-31T15:53:44.035Z,59.70
2023-01-31T15:56:19.679Z,59.80
2023-01-31T15:58:49.421Z,59.80
2023-01-31T16:01:18.151Z,59.80
2023-01-31T16:03:54.396Z,59.90
2023-01-31T16:06:30.408Z,59.90
2023-01-31T16:09:01.562Z,59.80
2023-01-31T16:11:33.655Z,59.80
2023-01-31T16:14:04.557Z,59.90
2023-01-31T16:16:35.781Z,59.80
2023-01-31T16:19:04.367Z,59.80
2023-01-31T16:21:37.782Z,59.90
2023-01-31T16:24:14.911Z,59.90
2023-01-31T16:26:54.627Z,59.90
2023-01-31T16:29:24.829Z,59.90
2023-01-31T16:31:54.850Z,59.90
2023-01-31T16:34:27.075Z,60.00
2023-01-31T16:37:02.245Z,59.90
2023-01-31T16:39:36.566Z,59.80
2023-01-31T16:42:05.727Z,59.80
2023-01-31T16:44:38.444Z,59.90
2023-01-31T16:47:06.558Z,59.90
2023-01-31T16:49:37.271Z,59.80
2023-01-31T16:52:18.049Z,59.80
2023-01-31T16:54:50.805Z,59.90
2023-01-31T16:57:24.341Z,59.80
2023-01-31T16:59:54.345Z,59.80
2023-01-31T17:02:28.938Z,59.80
2023-01-31T17:04:59.101Z,59.90
2023-01-31T17:07:31.069Z,59.90
2023-01-31T17:10:01.664Z,59.90
2023-01-31T17:12:31.492Z,59.90
2023-01-31T17:15:02.916Z,59.90
2023-01-31T17:17:36.926Z,59.90
2023-01-31T17:20:05.172Z,60.00
2023-01-31T17:22:34.299Z,60.00
2023-01-31T17:25:02.119Z,60.10
2023-01-31T17:27:29.914Z,60.10
2023-01-31T17:29:57.783Z,60.10
2023-01-31T17:32:25.707Z,60.20
2023-01-31T17:34:53.450Z,60.30
2023-01-31T17:37:31.077Z,60.30
2023-01-31T17:40:01.444Z,60.20
2023-01-31T17:42:29.238Z,60.40
2023-01-31T17:44:57.024Z,60.30
2023-01-31T17:47:26.805Z,60.40
2023-01-31T17:49:55.356Z,60.30
2023-01-31T17:52:23.133Z,60.80
2023-01-31T17:54:51.018Z,60.30
2023-01-31T17:57:20.229Z,60.30
2023-01-31T17:59:48.015Z,60.30
2023-01-31T18:02:15.793Z,60.40
2023-01-31T18:04:43.583Z,60.40
2023-01-31T18:07:15.492Z,60.40
2023-01-31T18:09:43.355Z,60.30
2023-01-31T18:12:11.154Z,60.30
2023-01-31T18:14:40.258Z,60.30
2023-01-31T18:17:08.049Z,60.30
2023-01-31T18:19:35.922Z,60.30
2023-01-31T18:22:03.699Z,60.40
2023-01-31T18:24:31.906Z,60.40
2023-01-31T18:26:59.903Z,60.30
2023-01-31T18:29:27.772Z,60.40
2023-01-31T18:32:02.189Z,60.30
2023-01-31T18:34:30.269Z,60.30
2023-01-31T18:36:58.351Z,60.30
2023-01-31T18:39:26.239Z,60.40
2023-01-31T18:41:54.092Z,60.30
2023-01-31T18:44:21.875Z,60.30
2023-01-31T18:46:49.925Z,60.30
2023-01-31T18:49:20.082Z,60.40
2023-01-31T18:51:49.616Z,60.40
2023-01-31T18:54:17.488Z,60.40
2023-01-31T18:56:45.312Z,60.40
2023-01-31T18:59:13.110Z,60.50
2023-01-31T19:01:43.324Z,60.50
2023-01-31T19:04:11.457Z,60.50
2023-01-31T19:06:41.394Z,60.60
2023-01-31T19:09:10.435Z,60.60
2023-01-31T19:11:38.265Z,60.60
2023-01-31T19:14:07.604Z,60.60
2023-01-31T19:16:39.792Z,60.70
2023-01-31T19:19:08.523Z,60.80
2023-01-31T19:21:37.599Z,60.80
2023-01-31T19:24:08.783Z,60.70
2023-01-31T19:26:36.860Z,60.90
2023-01-31T19:29:07.026Z,60.80
2023-01-31T19:31:36.482Z,60.80
2023-01-31T19:34:06.747Z,60.80
2023-01-31T19:36:36.374Z,60.70
2023-01-31T19:39:08.521Z,60.80
2023-01-31T19:41:36.600Z,60.80
2023-01-31T19:44:04.955Z,60.90
2023-01-31T19:46:34.509Z,60.80
2023-01-31T19:49:02.322Z,61.00
2023-01-31T19:51:30.724Z,60.90
2023-01-31T19:54:01.187Z,60.80
2023-01-31T19:56:31.278Z,60.90
2023-01-31T19:58:59.736Z,60.90
2023-01-31T20:01:27.609Z,60.90
2023-01-31T20:03:55.917Z,60.90
2023-01-31T20:06:26.095Z,60.90
2023-01-31T20:08:55.354Z,61.00
2023-01-31T20:11:24.076Z,60.90
2023-01-31T20:13:54.377Z,60.90
2023-01-31T20:16:23.386Z,61.00
2023-01-31T20:18:51.493Z,60.90
2023-01-31T20:21:21.312Z,60.90
2023-01-31T20:23:49.496Z,61.00
2023-01-31T20:26:18.336Z,61.10
2023-01-31T20:28:46.729Z,61.00
2023-01-31T20:31:17.363Z,61.00
2023-01-31T20:33:45.218Z,61.00
2023-01-31T20:36:13.626Z,61.00
2023-01-31T20:38:41.697Z,61.00
2023-01-31T20:41:10.226Z,61.00
2023-01-31T20:43:38.671Z,61.10
2023-01-31T20:46:07.782Z,61.10
2023-01-31T20:48:37.272Z,61.10
2023-01-31T20:51:05.882Z,61.10
2023-01-31T20:53:34.385Z,61.00
2023-01-31T20:56:03.935Z,61.00
2023-01-31T20:58:33.216Z,61.00
2023-01-31T21:01:03.542Z,61.00
2023-01-31T21:03:33.397Z,61.00
2023-01-31T21:06:03.609Z,61.00
2023-01-31T21:08:32.415Z,60.90
2023-01-31T21:11:00.918Z,60.90
2023-01-31T21:13:29.996Z,60.90
2023-01-31T21:15:59.527Z,60.80
2023-01-31T21:18:29.438Z,60.80
2023-01-31T21:20:57.599Z,60.90
2023-01-31T21:23:26.795Z,60.90
2023-01-31T21:25:54.578Z,60.80
2023-01-31T21:28:27.126Z,60.80
2023-01-31T21:30:59.462Z,60.90
2023-01-31T21:33:28.024Z,60.90
2023-01-31T21:35:58.087Z,60.90
2023-01-31T21:38:27.879Z,60.80
2023-01-31T21:41:10.608Z,60.80
2023-01-31T21:43:41.138Z,61.00
2023-01-31T21:46:09.665Z,60.80
2023-01-31T21:48:38.191Z,60.80
2023-01-31T21:51:07.814Z,60.80
2023-01-31T21:53:37.429Z,61.00
2023-01-31T21:56:07.555Z,60.80
2023-01-31T21:58:36.461Z,60.80
2023-01-31T22:01:06.010Z,60.80
2023-01-31T22:03:34.823Z,60.80
2023-01-31T22:06:03.377Z,60.80
2023-01-31T22:08:31.628Z,60.80
2023-01-31T22:11:02.386Z,60.80
2023-01-31T22:13:30.504Z,60.90
2023-01-31T22:16:02.253Z,60.80
2023-01-31T22:18:31.007Z,60.80
2023-01-31T22:21:03.319Z,60.80
2023-01-31T22:23:31.243Z,60.80
2023-01-31T22:26:05.064Z,60.80
2023-01-31T22:28:33.126Z,60.80
2023-01-31T22:31:02.114Z,60.80
2023-01-31T22:33:30.259Z,60.80
2023-01-31T22:35:58.150Z,60.80
2023-01-31T22:38:26.730Z,60.80
2023-01-31T22:40:57.972Z,60.80
2023-01-31T22:43:27.983Z,60.80
2023-01-31T22:45:58.271Z,60.80
2023-01-31T22:48:27.036Z,60.90
2023-01-31T22:50:56.559Z,60.80
2023-01-31T22:53:25.354Z,60.90
2023-01-31T22:55:53.515Z,60.80
2023-01-31T22:58:21.723Z,60.80
2023-01-31T23:00:50.876Z,60.90
2023-01-31T23:03:18.669Z,60.80
2023-01-31T23:05:46.474Z,60.90
2023-01-31T23:08:16.003Z,60.90
2023-01-31T23:10:44.440Z,60.90
2023-01-31T23:13:13.920Z,61.00
2023-01-31T23:15:41.784Z,61.00
2023-01-31T23:18:10.973Z,61.00
2023-01-31T23:20:38.803Z,60.90
2023-01-31T23:23:06.659Z,61.00
2023-01-31T23:25:34.484Z,61.10
2023-01-31T23:28:03.151Z,60.90
2023-01-31T23:30:31.087Z,60.90
2023-01-31T23:32:59.130Z,61.10
2023-01-31T23:35:28.349Z,61.10
2023-01-31T23:37:56.980Z,61.00
2023-01-31T23:40:24.780Z,61.00
2023-01-31T23:42:52.528Z,61.00
2023-01-31T23:45:20.339Z,61.00
2023-01-31T23:47:50.249Z,61.00
2023-01-31T23:50:18.725Z,61.00
2023-01-31T23:52:48.025Z,60.90
2023-01-31T23:55:18.174Z,61.10
2023-01-31T23:57:46.309Z,60.90
